Time;durP1;ratioP1;P1;durP2;ratioP2;P2;SDS_P1;SDS_P2;PMS_P1;PMS_P2;Temp;Humidity;BMP_temperature;BMP_pressure;BME280_temperature;BME280_humidity;BME280_pressure;Samples;Min_cycle;Max_cycle;Signal;HPM_P1;HPM_P2
2022/05/05 00:00:14;;;;;;;8.43;3.97;;;;;;;;;;4878414;29;20033;-71
2022/05/05 00:02:40;;;;;;;5.03;3.60;;;;;;;;;;4877448;29;20053;-70
2022/05/05 00:05:06;;;;;;;6.00;3.58;;;;;;;;;;4877377;29;20029;-73
2022/05/05 00:07:33;;;;;;;6.90;3.78;;;;;;;;;;4877166;29;20029;-71
2022/05/05 00:14:23;;;;;;;7.07;3.60;;;;;;;;;;4861769;29;20463;-72
2022/05/05 00:15:29;;;;;;;4.38;3.47;;;;;;;;;;4878859;29;20040;-71
2022/05/05 00:17:55;;;;;;;5.18;3.63;;;;;;;;;;4876107;29;20037;-71
2022/05/05 00:20:21;;;;;;;6.00;3.67;;;;;;;;;;4878164;29;20029;-71
2022/05/05 00:22:47;;;;;;;5.57;3.75;;;;;;;;;;4878244;29;20025;-71
2022/05/05 00:25:13;;;;;;;6.50;3.63;;;;;;;;;;4878326;29;20080;-71
2022/05/05 00:27:39;;;;;;;5.63;3.60;;;;;;;;;;4878659;29;20033;-70
2022/05/05 00:30:06;;;;;;;5.20;3.70;;;;;;;;;;4881533;29;20036;-71
2022/05/05 00:32:32;;;;;;;4.80;3.75;;;;;;;;;;4880975;29;20480;-70
2022/05/05 00:34:58;;;;;;;6.68;3.75;;;;;;;;;;4881570;29;20412;-71
2022/05/05 00:37:26;;;;;;;7.13;4.00;;;;;;;;;;4880429;29;20550;-71
2022/05/05 00:39:52;;;;;;;5.55;3.70;;;;;;;;;;4875955;29;20518;-71
2022/05/05 00:42:18;;;;;;;5.18;3.70;;;;;;;;;;4881456;29;20540;-71
2022/05/05 00:44:44;;;;;;;5.80;3.85;;;;;;;;;;4879804;29;20025;-71
2022/05/05 00:47:14;;;;;;;4.63;3.78;;;;;;;;;;4881620;29;20072;-70
2022/05/05 00:49:44;;;;;;;3.92;3.50;;;;;;;;;;4880177;29;20029;-71
2022/05/05 00:52:10;;;;;;;6.28;3.75;;;;;;;;;;4882715;29;20029;-70
2022/05/05 00:54:38;;;;;;;6.22;3.90;;;;;;;;;;4881736;29;20037;-72
2022/05/05 00:57:05;;;;;;;4.82;3.50;;;;;;;;;;4881682;29;20065;-72
2022/05/05 00:59:31;;;;;;;7.45;3.80;;;;;;;;;;4880098;29;20053;-70
2022/05/05 01:01:57;;;;;;;7.38;4.00;;;;;;;;;;4876554;29;20377;-72
2022/05/05 01:04:25;;;;;;;4.70;3.85;;;;;;;;;;4881549;29;20020;-70
2022/05/05 01:06:51;;;;;;;4.90;4.03;;;;;;;;;;4881256;29;20036;-71
2022/05/05 01:09:17;;;;;;;5.57;3.92;;;;;;;;;;4881487;29;20021;-72
2022/05/05 01:11:43;;;;;;;5.72;3.58;;;;;;;;;;4879649;29;20029;-70
2022/05/05 01:14:09;;;;;;;5.13;3.75;;;;;;;;;;4880219;29;20041;-71
2022/05/05 01:16:36;;;;;;;8.00;4.07;;;;;;;;;;4881466;29;20044;-70
2022/05/05 01:19:02;;;;;;;8.40;4.50;;;;;;;;;;4881093;29;20021;-70
2022/05/05 01:21:28;;;;;;;5.85;3.95;;;;;;;;;;4879798;29;20048;-72
2022/05/05 01:23:54;;;;;;;7.72;3.90;;;;;;;;;;4879211;29;20104;-72
2022/05/05 01:29:06;;;;;;;7.78;3.97;;;;;;;;;;4877381;29;20100;-70
2022/05/05 01:31:32;;;;;;;6.10;4.38;;;;;;;;;;4879536;29;20033;-71
2022/05/05 01:33:58;;;;;;;5.80;3.85;;;;;;;;;;4879946;29;20036;-71
2022/05/05 01:36:24;;;;;;;5.93;4.70;;;;;;;;;;4879940;29;20112;-71
2022/05/05 01:38:50;;;;;;;8.00;4.20;;;;;;;;;;4880724;29;20506;-70
2022/05/05 01:41:16;;;;;;;6.93;3.92;;;;;;;;;;4880402;29;20480;-72
2022/05/05 01:43:43;;;;;;;6.32;4.22;;;;;;;;;;4878409;29;20743;-70
2022/05/05 01:46:10;;;;;;;8.00;4.30;;;;;;;;;;4880745;29;20068;-70
2022/05/05 01:48:36;;;;;;;7.63;4.68;;;;;;;;;;4880739;29;20021;-75
2022/05/05 01:51:02;;;;;;;6.88;4.60;;;;;;;;;;4881969;29;20028;-71
2022/05/05 01:53:36;;;;;;;5.35;4.25;;;;;;;;;;4879464;29;20036;-73
2022/05/05 01:56:03;;;;;;;5.50;4.47;;;;;;;;;;4880290;29;20029;-70
2022/05/05 01:58:29;;;;;;;6.75;4.60;;;;;;;;;;4880636;29;20029;-70
2022/05/05 02:00:55;;;;;;;6.90;4.80;;;;;;;;;;4880828;29;20025;-71
2022/05/05 02:03:21;;;;;;;8.30;4.88;;;;;;;;;;4877515;29;20111;-71
2022/05/05 02:05:48;;;;;;;5.63;4.65;;;;;;;;;;4877021;29;20407;-70
2022/05/05 02:08:14;;;;;;;8.05;4.78;;;;;;;;;;4879631;29;20029;-71
2022/05/05 02:10:40;;;;;;;7.30;4.90;;;;;;;;;;4880207;29;20476;-70
2022/05/05 02:13:07;;;;;;;6.38;4.93;;;;;;;;;;4880187;29;20555;-71
2022/05/05 02:15:34;;;;;;;6.10;5.00;;;;;;;;;;4878397;29;20037;-72
2022/05/05 02:18:10;;;;;;;10.52;5.00;;;;;;;;;;4863438;29;20467;-71
2022/05/05 02:20:37;;;;;;;8.55;4.93;;;;;;;;;;4880101;29;20098;-74
2022/05/05 02:23:04;;;;;;;6.07;5.00;;;;;;;;;;4878876;29;20021;-71
2022/05/05 02:25:30;;;;;;;8.65;5.72;;;;;;;;;;4878434;29;20084;-70
2022/05/05 02:27:56;;;;;;;7.60;4.90;;;;;;;;;;4879276;29;20476;-70
2022/05/05 02:30:25;;;;;;;7.25;4.85;;;;;;;;;;4880148;29;20032;-71
2022/05/05 02:32:51;;;;;;;7.80;5.32;;;;;;;;;;4879147;29;20036;-73
2022/05/05 02:35:18;;;;;;;7.32;5.32;;;;;;;;;;4879683;29;20036;-70
2022/05/05 02:40:29;;;;;;;7.28;5.13;;;;;;;;;;4880295;29;20056;-70
2022/05/05 02:42:56;;;;;;;9.60;5.38;;;;;;;;;;4878928;29;20029;-72
2022/05/05 02:45:22;;;;;;;7.75;5.07;;;;;;;;;;4878969;29;20037;-70
2022/05/05 02:47:49;;;;;;;12.77;5.28;;;;;;;;;;4879561;29;20054;-72
2022/05/05 02:50:15;;;;;;;8.00;5.22;;;;;;;;;;4879708;29;20029;-70
2022/05/05 02:52:42;;;;;;;5.82;4.60;;;;;;;;;;4877106;29;20044;-70
2022/05/05 02:55:08;;;;;;;5.95;4.80;;;;;;;;;;4879431;29;20033;-70
2022/05/05 02:57:34;;;;;;;6.95;4.97;;;;;;;;;;4879188;29;20041;-71
2022/05/05 03:00:00;;;;;;;9.07;5.13;;;;;;;;;;4879519;29;20036;-70
2022/05/05 03:02:26;;;;;;;8.90;5.10;;;;;;;;;;4876982;29;20104;-70
2022/05/05 03:04:53;;;;;;;7.70;4.70;;;;;;;;;;4878251;29;20025;-70
2022/05/05 03:07:19;;;;;;;8.63;4.82;;;;;;;;;;4878758;29;20084;-71
2022/05/05 03:09:45;;;;;;;8.32;5.10;;;;;;;;;;4879284;29;20104;-70
2022/05/05 03:12:12;;;;;;;7.65;5.50;;;;;;;;;;4878873;29;20028;-71
2022/05/05 03:14:38;;;;;;;7.47;4.93;;;;;;;;;;4869103;29;20035;-70
2022/05/05 03:17:04;;;;;;;9.85;5.47;;;;;;;;;;4878788;29;20419;-71
2022/05/05 03:19:30;;;;;;;7.28;5.60;;;;;;;;;;4878618;29;20029;-71
2022/05/05 03:21:57;;;;;;;7.65;5.15;;;;;;;;;;4877731;29;20029;-70
2022/05/05 03:24:23;;;;;;;7.80;5.35;;;;;;;;;;4877931;29;20095;-72
2022/05/05 03:26:49;;;;;;;10.07;5.40;;;;;;;;;;4878051;29;20060;-71
2022/05/05 03:29:15;;;;;;;9.15;5.40;;;;;;;;;;4879159;29;20108;-70
2022/05/05 03:31:41;;;;;;;7.25;5.38;;;;;;;;;;4878184;29;20040;-70
2022/05/05 03:34:08;;;;;;;8.40;5.68;;;;;;;;;;4874051;29;20518;-70
2022/05/05 03:36:34;;;;;;;7.25;5.18;;;;;;;;;;4877546;29;20487;-71
2022/05/05 03:39:00;;;;;;;7.60;5.35;;;;;;;;;;4878375;29;20036;-71
2022/05/05 03:41:26;;;;;;;6.25;5.20;;;;;;;;;;4877615;29;20081;-70
2022/05/05 03:43:52;;;;;;;7.05;5.35;;;;;;;;;;4878345;29;20029;-71
2022/05/05 03:46:19;;;;;;;8.85;5.65;;;;;;;;;;4877111;29;20037;-71
2022/05/05 03:48:45;;;;;;;11.52;6.00;;;;;;;;;;4878424;29;20028;-71
2022/05/05 03:51:11;;;;;;;15.35;5.22;;;;;;;;;;4878374;29;20039;-70
2022/05/05 03:53:37;;;;;;;7.53;5.40;;;;;;;;;;4877946;29;20025;-71
2022/05/05 03:56:04;;;;;;;8.60;5.22;;;;;;;;;;4877780;29;20025;-71
2022/05/05 03:58:31;;;;;;;8.77;5.15;;;;;;;;;;4877718;29;20114;-71
2022/05/05 04:00:57;;;;;;;11.73;5.60;;;;;;;;;;4876387;29;20032;-70
2022/05/05 04:03:32;;;;;;;10.38;5.63;;;;;;;;;;4878118;29;20028;-71
2022/05/05 04:06:05;;;;;;;8.52;5.82;;;;;;;;;;4878388;29;20029;-70
2022/05/05 04:08:32;;;;;;;9.45;5.65;;;;;;;;;;4877007;29;20054;-70
2022/05/05 04:10:59;;;;;;;9.98;5.50;;;;;;;;;;4877548;29;20086;-71
2022/05/05 04:13:26;;;;;;;10.55;5.45;;;;;;;;;;4878402;29;20037;-71
2022/05/05 04:15:53;;;;;;;14.40;5.78;;;;;;;;;;4878591;29;20104;-70
2022/05/05 04:18:19;;;;;;;22.05;6.50;;;;;;;;;;4876086;29;20049;-70
2022/05/05 04:20:47;;;;;;;14.63;5.88;;;;;;;;;;4876424;29;20396;-71
2022/05/05 04:23:13;;;;;;;10.15;5.75;;;;;;;;;;4877479;29;20420;-71
2022/05/05 04:25:42;;;;;;;9.25;5.78;;;;;;;;;;4878403;29;20108;-70
2022/05/05 04:28:09;;;;;;;16.92;5.82;;;;;;;;;;4877127;29;20128;-72
2022/05/05 04:30:35;;;;;;;9.88;5.55;;;;;;;;;;4878182;29;20032;-70
2022/05/05 04:33:01;;;;;;;10.00;5.38;;;;;;;;;;4877835;29;20025;-71
2022/05/05 04:35:27;;;;;;;11.68;5.82;;;;;;;;;;4877260;29;20033;-71
2022/05/05 04:37:53;;;;;;;8.18;5.30;;;;;;;;;;4877514;29;20480;-74
2022/05/05 04:40:19;;;;;;;11.38;6.15;;;;;;;;;;4876414;29;20528;-71
2022/05/05 04:42:45;;;;;;;12.68;6.55;;;;;;;;;;4878196;29;20065;-71
2022/05/05 04:45:12;;;;;;;15.38;6.38;;;;;;;;;;4878047;29;20060;-70
2022/05/05 04:47:38;;;;;;;14.18;6.30;;;;;;;;;;4877520;29;20060;-71
2022/05/05 04:50:05;;;;;;;11.45;5.85;;;;;;;;;;4877357;29;20531;-71
2022/05/05 04:52:31;;;;;;;15.68;8.52;;;;;;;;;;4877963;29;20033;-71
2022/05/05 04:54:57;;;;;;;12.40;5.70;;;;;;;;;;4876495;29;20029;-71
2022/05/05 04:57:23;;;;;;;9.98;6.20;;;;;;;;;;4875623;29;20100;-70
2022/05/05 04:59:50;;;;;;;14.25;6.50;;;;;;;;;;4875078;29;20426;-74
2022/05/05 05:02:18;;;;;;;19.42;7.25;;;;;;;;;;4878059;29;20061;-71
2022/05/05 05:04:44;;;;;;;17.27;7.40;;;;;;;;;;4875376;29;20511;-72
2022/05/05 05:07:10;;;;;;;16.38;6.93;;;;;;;;;;4877852;29;20052;-72
2022/05/05 05:09:36;;;;;;;21.73;7.38;;;;;;;;;;4877846;29;20071;-71
2022/05/05 05:12:03;;;;;;;28.05;8.10;;;;;;;;;;4875055;29;20029;-71
2022/05/05 05:14:29;;;;;;;16.20;6.60;;;;;;;;;;4879869;29;20039;-71
2022/05/05 05:16:55;;;;;;;12.55;5.60;;;;;;;;;;4880049;29;20132;-74
2022/05/05 05:19:21;;;;;;;11.48;5.70;;;;;;;;;;4879565;29;20029;-71
2022/05/05 05:21:47;;;;;;;12.60;5.47;;;;;;;;;;4879676;29;20077;-71
2022/05/05 05:24:16;;;;;;;22.95;4.90;;;;;;;;;;4880918;29;20508;-71
2022/05/05 05:26:42;;;;;;;20.23;5.35;;;;;;;;;;4880725;29;20066;-71
2022/05/05 05:29:08;;;;;;;9.07;4.70;;;;;;;;;;4881238;29;20448;-71
2022/05/05 05:31:34;;;;;;;10.15;5.00;;;;;;;;;;4878696;29;20457;-72
2022/05/05 05:34:00;;;;;;;8.73;4.60;;;;;;;;;;4859286;29;20373;-75
2022/05/05 05:36:26;;;;;;;8.90;4.70;;;;;;;;;;4880277;29;20040;-72
2022/05/05 05:38:52;;;;;;;8.02;4.90;;;;;;;;;;4880782;29;20099;-80
2022/05/05 05:41:18;;;;;;;11.27;4.38;;;;;;;;;;4878115;29;20033;-71
2022/05/05 05:43:44;;;;;;;9.80;4.70;;;;;;;;;;4875756;29;20395;-72
2022/05/05 05:46:10;;;;;;;7.72;4.28;;;;;;;;;;4877938;29;20029;-72
2022/05/05 05:48:39;;;;;;;12.57;4.47;;;;;;;;;;4877764;29;20036;-72
2022/05/05 05:51:05;;;;;;;7.38;4.65;;;;;;;;;;4879126;29;20067;-81
2022/05/05 05:53:32;;;;;;;11.27;4.07;;;;;;;;;;4875408;29;20503;-73
2022/05/05 05:55:58;;;;;;;18.23;5.25;;;;;;;;;;4878200;29;20070;-73
2022/05/05 05:58:24;;;;;;;11.70;4.50;;;;;;;;;;4878489;29;20044;-73
2022/05/05 06:00:50;;;;;;;7.82;4.18;;;;;;;;;;4878563;29;20089;-73
2022/05/05 06:06:01;;;;;;;8.25;4.30;;;;;;;;;;4877407;29;20681;-79
2022/05/05 06:08:27;;;;;;;9.20;4.22;;;;;;;;;;4879202;29;20033;-74
2022/05/05 06:10:53;;;;;;;14.93;4.60;;;;;;;;;;4880531;29;20025;-74
2022/05/05 06:13:19;;;;;;;10.57;4.90;;;;;;;;;;4880005;29;20040;-80
2022/05/05 06:15:45;;;;;;;7.65;4.95;;;;;;;;;;4879668;29;20503;-80
2022/05/05 06:18:11;;;;;;;8.32;4.65;;;;;;;;;;4879024;29;20045;-81
2022/05/05 06:20:37;;;;;;;10.18;4.60;;;;;;;;;;4879921;29;20468;-77
2022/05/05 06:23:03;;;;;;;15.15;5.18;;;;;;;;;;4876902;29;20543;-84
2022/05/05 06:25:29;;;;;;;8.23;4.57;;;;;;;;;;4878727;29;20072;-71
2022/05/05 06:27:58;;;;;;;23.30;5.50;;;;;;;;;;4879671;29;20388;-73
2022/05/05 06:30:24;;;;;;;13.00;5.03;;;;;;;;;;4875665;29;20036;-72
2022/05/05 06:32:50;;;;;;;13.02;5.28;;;;;;;;;;4879466;29;20033;-69
2022/05/05 06:35:17;;;;;;;8.27;5.05;;;;;;;;;;4876963;29;20072;-71
2022/05/05 06:37:43;;;;;;;11.48;5.50;;;;;;;;;;4876998;29;20034;-71
2022/05/05 06:40:09;;;;;;;9.05;5.88;;;;;;;;;;4878900;29;20037;-71
2022/05/05 06:42:35;;;;;;;8.32;4.53;;;;;;;;;;4879641;29;20033;-70
2022/05/05 06:45:01;;;;;;;8.43;4.32;;;;;;;;;;4879683;29;20096;-70
2022/05/05 06:47:29;;;;;;;9.75;4.35;;;;;;;;;;4880375;29;20033;-72
2022/05/05 06:49:55;;;;;;;16.27;4.47;;;;;;;;;;4879867;29;20050;-71
2022/05/05 06:52:21;;;;;;;11.00;4.65;;;;;;;;;;4877793;29;20029;-72
2022/05/05 06:54:47;;;;;;;8.95;4.60;;;;;;;;;;4879220;29;20061;-71
2022/05/05 06:57:13;;;;;;;12.77;4.50;;;;;;;;;;4879713;29;20041;-72
2022/05/05 06:59:39;;;;;;;8.68;4.25;;;;;;;;;;4879438;29;20085;-72
2022/05/05 07:02:05;;;;;;;9.98;4.85;;;;;;;;;;4879247;29;20040;-73
2022/05/05 07:07:17;;;;;;;8.98;4.18;;;;;;;;;;4873953;29;20124;-77
2022/05/05 07:12:31;;;;;;;10.43;4.50;;;;;;;;;;4878856;29;20093;-71
2022/05/05 07:14:58;;;;;;;6.65;4.13;;;;;;;;;;4879172;29;20062;-72
2022/05/05 07:17:24;;;;;;;6.25;4.13;;;;;;;;;;4876605;29;20511;-80
2022/05/05 07:19:51;;;;;;;6.97;4.45;;;;;;;;;;4874862;29;20396;-70
2022/05/05 07:22:17;;;;;;;8.73;4.40;;;;;;;;;;4873595;29;20038;-71
2022/05/05 07:24:44;;;;;;;11.70;4.43;;;;;;;;;;4877431;29;20090;-76
2022/05/05 07:27:10;;;;;;;19.00;4.80;;;;;;;;;;4877010;29;20037;-81
2022/05/05 07:29:41;;;;;;;9.63;4.50;;;;;;;;;;4876086;29;20084;-81
2022/05/05 07:32:07;;;;;;;7.75;4.20;;;;;;;;;;4857610;29;20070;-87
2022/05/05 07:34:34;;;;;;;6.80;4.32;;;;;;;;;;4861108;29;20041;-84
2022/05/05 07:37:00;;;;;;;7.28;4.40;;;;;;;;;;4875334;29;20102;-73
2022/05/05 07:39:26;;;;;;;7.47;4.15;;;;;;;;;;4872052;29;20080;-75
2022/05/05 07:41:52;;;;;;;11.70;4.72;;;;;;;;;;4877005;29;20029;-71
2022/05/05 07:44:18;;;;;;;7.28;4.35;;;;;;;;;;4874933;29;20057;-80
2022/05/05 07:46:45;;;;;;;13.65;4.28;;;;;;;;;;4857600;29;20028;-78
2022/05/05 07:49:11;;;;;;;9.13;4.30;;;;;;;;;;4855696;29;20033;-72
2022/05/05 07:51:37;;;;;;;10.93;4.78;;;;;;;;;;4873185;29;20032;-70
2022/05/05 07:56:51;;;;;;;11.77;4.80;;;;;;;;;;4871977;29;20052;-72
2022/05/05 07:59:19;;;;;;;21.33;5.68;;;;;;;;;;4877304;29;20080;-72
2022/05/05 08:01:45;;;;;;;7.70;4.95;;;;;;;;;;4875963;29;20027;-72
2022/05/05 08:04:11;;;;;;;13.27;5.57;;;;;;;;;;4872034;29;20037;-73
2022/05/05 08:06:37;;;;;;;14.95;5.72;;;;;;;;;;4866467;29;20029;-71
2022/05/05 08:09:03;;;;;;;17.55;5.47;;;;;;;;;;4878544;29;20032;-78
2022/05/05 08:11:29;;;;;;;9.57;5.07;;;;;;;;;;4877317;29;20032;-72
2022/05/05 08:13:55;;;;;;;8.45;5.07;;;;;;;;;;4875225;29;20391;-78
2022/05/05 08:16:22;;;;;;;9.73;5.15;;;;;;;;;;4858727;29;20119;-72
2022/05/05 08:18:48;;;;;;;11.43;5.90;;;;;;;;;;4876161;29;20161;-72
2022/05/05 08:21:14;;;;;;;8.73;5.43;;;;;;;;;;4876212;29;20048;-75
2022/05/05 08:23:40;;;;;;;8.77;5.35;;;;;;;;;;4875038;29;20049;-72
2022/05/05 08:28:51;;;;;;;15.55;5.60;;;;;;;;;;4873075;29;20052;-72
2022/05/05 08:31:17;;;;;;;12.13;5.18;;;;;;;;;;4875077;29;20104;-75
2022/05/05 08:33:44;;;;;;;12.45;5.20;;;;;;;;;;4875243;29;20029;-74
2022/05/05 08:36:10;;;;;;;15.02;5.25;;;;;;;;;;4876374;29;20488;-74
2022/05/05 08:38:36;;;;;;;14.18;5.10;;;;;;;;;;4873056;29;20045;-80
2022/05/05 08:41:03;;;;;;;10.77;5.30;;;;;;;;;;4863684;29;20045;-81
2022/05/05 08:43:29;;;;;;;9.23;4.68;;;;;;;;;;4876248;29;20487;-82
2022/05/05 08:45:58;;;;;;;10.65;5.00;;;;;;;;;;4872572;29;20041;-78
2022/05/05 08:48:24;;;;;;;14.00;5.90;;;;;;;;;;4875145;29;20061;-75
2022/05/05 08:50:56;;;;;;;7.90;4.95;;;;;;;;;;4878114;29;20056;-77
2022/05/05 08:53:23;;;;;;;20.30;5.63;;;;;;;;;;4874134;29;20051;-73
2022/05/05 08:55:49;;;;;;;7.15;4.30;;;;;;;;;;4880385;29;20041;-75
2022/05/05 08:58:16;;;;;;;11.20;4.35;;;;;;;;;;4866413;29;20037;-74
2022/05/05 09:00:42;;;;;;;13.10;4.90;;;;;;;;;;4880723;29;20379;-76
2022/05/05 09:03:09;;;;;;;13.38;5.00;;;;;;;;;;4877794;29;20094;-74
2022/05/05 09:05:44;;;;;;;10.98;4.95;;;;;;;;;;4877824;29;20017;-73
2022/05/05 09:08:11;;;;;;;7.65;4.20;;;;;;;;;;4874048;29;20041;-70
2022/05/05 09:10:45;;;;;;;9.23;4.97;;;;;;;;;;4876674;29;20031;-69
2022/05/05 09:13:11;;;;;;;12.43;4.80;;;;;;;;;;4886798;29;20440;-79
2022/05/05 09:15:38;;;;;;;10.45;4.97;;;;;;;;;;4877772;29;20361;-71
2022/05/05 09:18:18;;;;;;;6.80;4.25;;;;;;;;;;4875932;29;20053;-69
2022/05/05 09:20:44;;;;;;;7.00;4.03;;;;;;;;;;4875150;29;20024;-82
2022/05/05 09:23:30;;;;;;;23.25;5.07;;;;;;;;;;4877180;29;20395;-84
2022/05/05 09:25:56;;;;;;;11.38;4.68;;;;;;;;;;4878352;29;20041;-83
2022/05/05 09:28:23;;;;;;;8.13;4.30;;;;;;;;;;4878354;29;20029;-75
2022/05/05 09:30:53;;;;;;;8.07;4.53;;;;;;;;;;4878483;29;20031;-85
2022/05/05 09:33:37;;;;;;;14.48;5.40;;;;;;;;;;4879441;29;20048;-82
2022/05/05 09:36:04;;;;;;;16.17;4.80;;;;;;;;;;4880217;29;20021;-87
2022/05/05 09:38:52;;;;;;;21.27;5.78;;;;;;;;;;4876008;29;20048;-90
2022/05/05 09:41:22;;;;;;;9.77;4.57;;;;;;;;;;4861500;29;20056;-90
2022/05/05 09:43:48;;;;;;;16.15;5.65;;;;;;;;;;4864209;29;20379;-83
2022/05/05 09:46:24;;;;;;;12.10;4.95;;;;;;;;;;4868055;29;20036;-92
2022/05/05 09:48:50;;;;;;;8.50;4.70;;;;;;;;;;4858758;29;20021;-87
2022/05/05 09:51:20;;;;;;;6.75;4.25;;;;;;;;;;4867927;29;20041;-92
2022/05/05 09:59:29;;;;;;;8.68;5.15;;;;;;;;;;4863622;29;20044;-75
2022/05/05 10:01:56;;;;;;;6.38;4.20;;;;;;;;;;4852725;29;20109;-86
2022/05/05 10:04:23;;;;;;;7.80;4.53;;;;;;;;;;4862212;29;20033;-77
2022/05/05 10:06:50;;;;;;;7.75;4.22;;;;;;;;;;4862396;29;20025;-90
2022/05/05 10:09:17;;;;;;;6.57;4.10;;;;;;;;;;4879109;29;20076;-86
2022/05/05 10:11:43;;;;;;;7.93;4.10;;;;;;;;;;4862548;29;20045;-75
2022/05/05 10:14:13;;;;;;;11.38;4.80;;;;;;;;;;4879739;29;20500;-75
2022/05/05 10:16:40;;;;;;;7.05;4.50;;;;;;;;;;4876665;29;20033;-73
2022/05/05 10:19:06;;;;;;;7.78;3.88;;;;;;;;;;4877515;29;20507;-74
2022/05/05 10:21:56;;;;;;;8.85;4.28;;;;;;;;;;4874981;29;20029;-72
2022/05/05 10:24:28;;;;;;;11.80;4.07;;;;;;;;;;4803569;29;20123;-75
2022/05/05 10:26:56;;;;;;;6.07;4.00;;;;;;;;;;4782790;30;20131;-85
2022/05/05 10:29:31;;;;;;;10.77;4.45;;;;;;;;;;4786765;30;20063;-72
2022/05/05 10:32:06;;;;;;;7.93;4.47;;;;;;;;;;4787002;30;20028;-73
2022/05/05 10:34:33;;;;;;;9.75;4.05;;;;;;;;;;4786356;29;20092;-72
2022/05/05 10:37:00;;;;;;;7.53;3.83;;;;;;;;;;4786880;30;20180;-72
2022/05/05 10:39:41;;;;;;;5.88;3.58;;;;;;;;;;4786230;30;20102;-73
2022/05/05 10:42:14;;;;;;;12.48;4.65;;;;;;;;;;4787129;30;20039;-72
2022/05/05 10:44:58;;;;;;;8.77;3.85;;;;;;;;;;4786895;30;20076;-73
2022/05/05 10:47:24;;;;;;;8.35;4.32;;;;;;;;;;4786369;30;20050;-72
2022/05/05 10:49:50;;;;;;;9.98;5.57;;;;;;;;;;4786458;30;20144;-72
2022/05/05 10:52:16;;;;;;;8.73;4.88;;;;;;;;;;4786142;30;20045;-71
2022/05/05 10:54:47;;;;;;;14.80;6.50;;;;;;;;;;4773889;30;20040;-72
2022/05/05 10:57:29;;;;;;;9.18;4.30;;;;;;;;;;4786605;30;20035;-72
2022/05/05 11:00:12;;;;;;;8.95;4.22;;;;;;;;;;4786367;30;20027;-71
2022/05/05 11:02:39;;;;;;;9.15;3.92;;;;;;;;;;4861254;29;20030;-73
2022/05/05 11:05:21;;;;;;;5.80;3.85;;;;;;;;;;4861221;29;20029;-72
2022/05/05 11:07:49;;;;;;;10.38;4.30;;;;;;;;;;4861377;29;20493;-73
2022/05/05 11:10:31;;;;;;;18.70;4.93;;;;;;;;;;4860614;29;20089;-73
2022/05/05 11:12:58;;;;;;;8.48;4.32;;;;;;;;;;4862916;29;20049;-72
2022/05/05 11:23:57;;;;;;;8.93;3.92;;;;;;;;;;4869089;29;20059;-72
2022/05/05 11:26:23;;;;;;;14.98;4.63;;;;;;;;;;4879696;29;20128;-72
2022/05/05 11:28:50;;;;;;;7.43;4.65;;;;;;;;;;4879327;29;20041;-73
2022/05/05 11:31:22;;;;;;;8.30;5.00;;;;;;;;;;4882588;29;20028;-73
2022/05/05 11:33:49;;;;;;;18.00;5.90;;;;;;;;;;4878799;29;20301;-72
2022/05/05 11:36:15;;;;;;;21.58;5.60;;;;;;;;;;4879273;29;20029;-72
2022/05/05 11:38:42;;;;;;;14.20;5.35;;;;;;;;;;4879478;29;20121;-71
2022/05/05 11:41:08;;;;;;;11.18;4.75;;;;;;;;;;4879272;29;20025;-72
2022/05/05 11:46:20;;;;;;;9.65;4.63;;;;;;;;;;4882314;29;20522;-72
2022/05/05 11:48:54;;;;;;;8.02;4.32;;;;;;;;;;4878982;29;20037;-72
2022/05/05 11:51:27;;;;;;;13.88;4.45;;;;;;;;;;4879352;29;20169;-72
2022/05/05 11:54:02;;;;;;;10.68;4.18;;;;;;;;;;4878220;29;20507;-72
2022/05/05 11:56:29;;;;;;;5.80;3.95;;;;;;;;;;4879095;29;20115;-72
2022/05/05 12:01:41;;;;;;;8.23;4.35;;;;;;;;;;4879205;29;20502;-72
2022/05/05 12:04:12;;;;;;;9.93;4.20;;;;;;;;;;4878920;29;20056;-72
2022/05/05 12:06:39;;;;;;;10.43;4.63;;;;;;;;;;4878031;29;20092;-72
2022/05/05 12:09:09;;;;;;;8.85;4.20;;;;;;;;;;4878762;29;20380;-73
2022/05/05 12:11:36;;;;;;;9.02;4.22;;;;;;;;;;4879256;29;20050;-73
2022/05/05 12:14:04;;;;;;;7.07;4.15;;;;;;;;;;4878697;29;20029;-72
2022/05/05 12:16:32;;;;;;;5.95;3.75;;;;;;;;;;4878330;29;20029;-72
2022/05/05 12:18:59;;;;;;;15.13;5.30;;;;;;;;;;4878769;29;20041;-72
2022/05/05 12:21:26;;;;;;;12.43;5.35;;;;;;;;;;4887994;29;20036;-73
2022/05/05 12:24:01;;;;;;;10.35;4.13;;;;;;;;;;4877606;29;20044;-70
2022/05/05 12:26:32;;;;;;;8.93;4.22;;;;;;;;;;4878116;29;20049;-73
2022/05/05 12:28:58;;;;;;;10.40;4.43;;;;;;;;;;4878947;29;20032;-73
2022/05/05 12:31:25;;;;;;;8.18;4.28;;;;;;;;;;4878138;29;20482;-73
2022/05/05 12:33:51;;;;;;;8.93;4.35;;;;;;;;;;4878740;29;20044;-72
2022/05/05 12:36:18;;;;;;;8.35;4.15;;;;;;;;;;4878280;29;20025;-73
2022/05/05 12:38:44;;;;;;;8.75;4.10;;;;;;;;;;4878289;29;20072;-73
2022/05/05 12:41:10;;;;;;;10.00;4.15;;;;;;;;;;4878295;29;20036;-72
2022/05/05 12:43:39;;;;;;;8.15;4.43;;;;;;;;;;4881681;29;20033;-72
2022/05/05 12:46:05;;;;;;;16.50;4.68;;;;;;;;;;4878847;29;20154;-73
2022/05/05 12:48:32;;;;;;;10.95;4.20;;;;;;;;;;4878258;29;20065;-73
2022/05/05 12:50:58;;;;;;;7.28;4.03;;;;;;;;;;4861660;29;20029;-72
2022/05/05 13:01:44;;;;;;;5.70;4.00;;;;;;;;;;4878201;29;20051;-72
2022/05/05 13:04:14;;;;;;;9.20;4.18;;;;;;;;;;4878467;29;20041;-72
2022/05/05 13:06:41;;;;;;;5.95;4.28;;;;;;;;;;4878439;29;20025;-72
2022/05/05 13:09:08;;;;;;;8.85;4.00;;;;;;;;;;4878076;29;20156;-73
2022/05/05 13:11:55;;;;;;;6.85;4.22;;;;;;;;;;4878455;29;20040;-73
2022/05/05 13:14:22;;;;;;;9.13;4.47;;;;;;;;;;4878258;29;20574;-72
2022/05/05 13:16:48;;;;;;;11.82;4.05;;;;;;;;;;4880161;29;20084;-71
2022/05/05 13:19:14;;;;;;;11.38;4.07;;;;;;;;;;4877922;29;20510;-73
2022/05/05 13:21:41;;;;;;;19.05;4.50;;;;;;;;;;4878184;29;20025;-73
2022/05/05 13:24:10;;;;;;;9.25;4.80;;;;;;;;;;4877737;29;20049;-72
2022/05/05 13:26:39;;;;;;;8.23;4.60;;;;;;;;;;4878370;29;20041;-72
2022/05/05 13:29:06;;;;;;;15.18;4.65;;;;;;;;;;4878653;29;20029;-73
2022/05/05 13:31:32;;;;;;;6.60;4.32;;;;;;;;;;4861201;29;20124;-73
2022/05/05 13:33:58;;;;;;;11.88;4.50;;;;;;;;;;4878307;29;20040;-72
2022/05/05 13:36:24;;;;;;;7.68;4.10;;;;;;;;;;4881585;29;20046;-73
2022/05/05 13:38:50;;;;;;;7.60;4.05;;;;;;;;;;4881515;29;20091;-73
2022/05/05 13:41:16;;;;;;;6.60;3.90;;;;;;;;;;4881098;29;20021;-72
2022/05/05 13:43:42;;;;;;;7.57;4.10;;;;;;;;;;4881313;29;20555;-72
2022/05/05 13:46:09;;;;;;;7.35;4.47;;;;;;;;;;4881475;29;20025;-72
2022/05/05 13:48:36;;;;;;;9.50;4.20;;;;;;;;;;4880775;29;20053;-72
2022/05/05 13:51:05;;;;;;;6.45;4.07;;;;;;;;;;4881060;29;20025;-72
2022/05/05 13:53:31;;;;;;;8.48;4.22;;;;;;;;;;4881001;29;20033;-72
2022/05/05 13:55:57;;;;;;;8.10;4.35;;;;;;;;;;4865034;29;20040;-72
2022/05/05 13:58:26;;;;;;;13.02;4.78;;;;;;;;;;4886762;29;20110;-72
2022/05/05 14:00:52;;;;;;;27.40;4.60;;;;;;;;;;4881103;29;20539;-72
2022/05/05 14:03:18;;;;;;;6.78;3.95;;;;;;;;;;4880815;29;20033;-72
2022/05/05 14:05:44;;;;;;;9.60;4.07;;;;;;;;;;4880879;29;20100;-72
2022/05/05 14:13:40;;;;;;;9.00;4.28;;;;;;;;;;4880351;29;20105;-72
2022/05/05 14:16:06;;;;;;;10.45;4.05;;;;;;;;;;4881083;29;20082;-72
2022/05/05 14:18:32;;;;;;;9.63;4.75;;;;;;;;;;4880556;29;20483;-72
2022/05/05 14:20:58;;;;;;;9.23;5.05;;;;;;;;;;4880928;29;20033;-71
2022/05/05 14:23:24;;;;;;;13.05;5.15;;;;;;;;;;4880101;29;20029;-73
2022/05/05 14:25:50;;;;;;;16.95;4.30;;;;;;;;;;4880665;29;20503;-72
2022/05/05 14:28:21;;;;;;;14.40;4.13;;;;;;;;;;4880650;29;20047;-72
2022/05/05 14:30:47;;;;;;;7.20;4.00;;;;;;;;;;4880760;29;20021;-73
2022/05/05 14:33:13;;;;;;;11.82;3.72;;;;;;;;;;4880341;29;20036;-72
2022/05/05 14:35:40;;;;;;;14.63;4.10;;;;;;;;;;4880043;29;20024;-73
2022/05/05 14:38:06;;;;;;;7.13;4.00;;;;;;;;;;4880277;29;20048;-73
2022/05/05 14:40:33;;;;;;;8.55;4.07;;;;;;;;;;4880236;29;20094;-73
2022/05/05 14:42:59;;;;;;;10.60;3.60;;;;;;;;;;4863564;29;20458;-73
2022/05/05 14:45:25;;;;;;;11.80;4.13;;;;;;;;;;4879055;29;20085;-73
2022/05/05 14:47:51;;;;;;;5.75;3.70;;;;;;;;;;4880122;29;20032;-73
2022/05/05 14:50:17;;;;;;;7.20;3.60;;;;;;;;;;4880451;29;20458;-73
2022/05/05 14:52:45;;;;;;;11.93;3.65;;;;;;;;;;4882008;29;20052;-73
2022/05/05 14:55:11;;;;;;;6.50;3.80;;;;;;;;;;4879159;29;20036;-72
2022/05/05 14:57:38;;;;;;;7.28;4.00;;;;;;;;;;4878819;29;20063;-72
2022/05/05 15:00:06;;;;;;;7.57;4.00;;;;;;;;;;4880112;29;20107;-72
2022/05/05 15:02:34;;;;;;;5.60;3.35;;;;;;;;;;4880265;29;20028;-73
2022/05/05 15:05:00;;;;;;;8.13;4.03;;;;;;;;;;4879862;29;20021;-73
2022/05/05 15:07:26;;;;;;;8.07;3.85;;;;;;;;;;4879663;29;20100;-73
2022/05/05 15:09:52;;;;;;;16.98;4.07;;;;;;;;;;4880006;29;20029;-73
2022/05/05 15:12:18;;;;;;;6.50;3.75;;;;;;;;;;4879866;29;20084;-73
2022/05/05 15:14:46;;;;;;;6.82;3.80;;;;;;;;;;4879840;29;20029;-72
2022/05/05 15:17:13;;;;;;;8.45;3.70;;;;;;;;;;4879487;29;20091;-73
2022/05/05 15:19:39;;;;;;;11.48;4.40;;;;;;;;;;4879840;29;20033;-72
2022/05/05 15:22:05;;;;;;;8.65;4.05;;;;;;;;;;4879923;29;20021;-73
2022/05/05 15:24:31;;;;;;;6.22;3.60;;;;;;;;;;4879264;29;20088;-72
2022/05/05 15:27:02;;;;;;;5.80;3.80;;;;;;;;;;4878903;29;20124;-73
2022/05/05 15:29:28;;;;;;;6.82;3.58;;;;;;;;;;4860848;29;20060;-72
2022/05/05 15:31:54;;;;;;;9.90;3.90;;;;;;;;;;4861091;29;20061;-73
2022/05/05 15:34:20;;;;;;;11.10;3.90;;;;;;;;;;4860921;29;20480;-73